Black Earth, Wisconsin
Current Conditions -  °F | °C
As of 10:10 AM on Monday 22 Dec 2014 (Local Time) from KC29 Reporting Station
Overcast Overcast  
Wind Chill: 28°   Ceiling: 6000
Heat Index: 36°   Visibility: 5mi
Dew Point: 32°   Wind: 10mph
Humidity: 86%   Direction: 130°SE
Pressure: 29.82"   Gusts: NA
Location:  43.14°N, 89.75°W
Report Text: KC29 221610Z AUTO 13009KT 5SM SCT044 BKN060 OVC080 02/00 A2982 RMK AO1 T00211001
Loading
Personal Weather Stations






























Interactive Weather Map New forecast layout! Learn more

10-Day Weather Forecast

Advertisements
Track Severe Weather on mobile